createdAt,value
2022-08-09T00:00:01.028Z,101190.03
2022-08-09T00:02:34.063Z,101196.06
2022-08-09T00:06:15.395Z,101199.41
2022-08-09T00:07:48.950Z,101196.50
2022-08-09T00:10:17.934Z,101202.53
2022-08-09T00:12:51.540Z,101207.69
2022-08-09T00:15:19.949Z,101197.69
2022-08-09T00:18:07.570Z,101214.13
2022-08-09T00:20:42.381Z,101213.81
2022-08-09T00:23:54.841Z,101223.47
2022-08-09T00:26:11.136Z,101219.72
2022-08-09T00:28:39.665Z,101229.41
2022-08-09T00:31:56.811Z,101235.63
2022-08-09T00:33:55.366Z,101237.63
2022-08-09T00:36:29.581Z,101230.69
2022-08-09T00:38:58.453Z,101224.22
2022-08-09T00:44:13.223Z,101235.63
2022-08-09T00:44:25.434Z,101233.66
2022-08-09T00:47:05.404Z,101244.72
2022-08-09T00:49:38.948Z,101263.72
2022-08-09T00:52:17.245Z,101262.22
2022-08-09T00:54:45.610Z,101249.66
2022-08-09T00:57:12.799Z,101248.06
2022-08-09T00:59:46.460Z,101245.38
2022-08-09T01:02:27.723Z,101235.91
2022-08-09T01:05:03.567Z,101246.97
2022-08-09T01:08:00.321Z,101249.94
2022-08-09T01:10:35.895Z,101254.56
2022-08-09T01:13:09.263Z,101249.69
2022-08-09T01:15:52.158Z,101238.31
2022-08-09T01:18:31.457Z,101243.03
2022-08-09T01:21:17.066Z,101252.66
2022-08-09T01:24:11.119Z,101249.81
2022-08-09T01:27:09.653Z,101248.75
2022-08-09T01:29:55.712Z,101247.88
2022-08-09T01:32:34.055Z,101236.47
2022-08-09T01:35:29.124Z,101240.44
2022-08-09T01:38:09.305Z,101236.34
2022-08-09T01:40:41.466Z,101234.72
2022-08-09T01:43:10.070Z,101247.38
2022-08-09T01:45:46.283Z,101247.47
2022-08-09T01:48:29.487Z,101243.38
2022-08-09T01:50:58.680Z,101238.88
2022-08-09T01:53:29.291Z,101240.69
2022-08-09T01:56:11.234Z,101239.00
2022-08-09T01:58:40.286Z,101245.22
2022-08-09T02:01:09.153Z,101245.78
2022-08-09T02:03:37.229Z,101254.34
2022-08-09T02:06:07.379Z,101245.88
2022-08-09T02:08:57.916Z,101240.13
2022-08-09T02:11:42.638Z,101243.38
2022-08-09T02:14:11.023Z,101245.19
2022-08-09T02:16:53.243Z,101248.25
2022-08-09T02:19:38.538Z,101247.81
2022-08-09T02:22:16.879Z,101245.47
2022-08-09T02:24:52.009Z,101249.75
2022-08-09T02:27:43.127Z,101250.41
2022-08-09T02:30:12.693Z,101239.38
2022-08-09T02:32:46.195Z,101243.66
2022-08-09T02:36:02.491Z,101247.41
2022-08-09T02:38:27.948Z,101250.66
2022-08-09T02:41:01.104Z,101242.72
2022-08-09T02:43:54.235Z,101238.94
2022-08-09T02:46:18.930Z,101250.13
2022-08-09T02:48:46.978Z,101236.69
2022-08-09T02:51:20.451Z,101248.50
2022-08-09T02:54:00.533Z,101257.44
2022-08-09T02:56:30.576Z,101255.78
2022-08-09T02:58:59.728Z,101259.22
2022-08-09T03:01:29.638Z,101270.78
2022-08-09T03:04:19.165Z,101250.38
2022-08-09T03:06:49.011Z,101254.34
2022-08-09T03:09:18.204Z,101257.25
2022-08-09T03:12:06.210Z,101267.41
2022-08-09T03:14:37.474Z,101281.31
2022-08-09T03:17:05.523Z,101286.22
2022-08-09T03:19:59.311Z,101291.88
2022-08-09T03:22:25.467Z,101288.91
2022-08-09T03:25:05.665Z,101288.44
2022-08-09T03:27:49.995Z,101294.56
2022-08-09T03:30:28.107Z,101305.88
2022-08-09T03:33:01.980Z,101315.97
2022-08-09T03:36:11.602Z,101334.75
2022-08-09T03:38:28.781Z,101361.19
2022-08-09T03:40:56.304Z,101369.75
2022-08-09T03:43:22.979Z,101371.81
2022-08-09T03:46:04.228Z,101383.69
2022-08-09T03:48:37.517Z,101383.75
2022-08-09T03:51:55.696Z,101379.59
2022-08-09T03:54:06.309Z,101379.00
2022-08-09T03:56:41.328Z,101388.34
2022-08-09T03:59:20.961Z,101380.91
2022-08-09T04:15:00.276Z,101396.53
2022-08-09T04:17:29.506Z,101336.88
2022-08-09T04:19:56.543Z,101320.56
2022-08-09T04:22:23.779Z,101323.41
2022-08-09T04:24:50.841Z,101308.31
2022-08-09T04:27:22.022Z,101306.16
2022-08-09T04:29:49.539Z,101292.91
2022-08-09T04:32:31.335Z,101293.53
2022-08-09T04:35:02.625Z,101303.94
2022-08-09T04:37:45.306Z,101305.41
2022-08-09T04:40:19.010Z,101312.31
2022-08-09T04:42:48.581Z,101313.44
2022-08-09T04:45:20.557Z,101314.53
2022-08-09T04:48:00.923Z,101316.81
2022-08-09T04:50:33.709Z,101310.66
2022-08-09T04:53:02.199Z,101303.91
2022-08-09T04:55:37.855Z,101324.53
2022-08-09T04:58:10.694Z,101311.78
2022-08-09T05:00:40.615Z,101301.66
2022-08-09T05:03:30.653Z,101300.03
2022-08-09T05:06:06.680Z,101294.78
2022-08-09T05:08:34.969Z,101296.06
2022-08-09T05:11:03.370Z,101296.50
2022-08-09T05:13:38.823Z,101305.53
2022-08-09T05:16:10.145Z,101295.06
2022-08-09T05:18:50.461Z,101307.88
2022-08-09T05:21:29.690Z,101306.38
2022-08-09T05:24:01.243Z,101317.03
2022-08-09T05:26:36.392Z,101308.22
2022-08-09T05:29:17.499Z,101269.63
2022-08-09T05:31:46.655Z,101309.88
2022-08-09T05:34:17.695Z,101281.38
2022-08-09T05:36:47.046Z,101302.44
2022-08-09T05:39:29.561Z,101309.69
2022-08-09T05:42:04.416Z,101302.81
2022-08-09T05:44:34.980Z,101294.22
2022-08-09T05:47:04.960Z,101297.09
2022-08-09T05:50:23.132Z,101289.13
2022-08-09T05:52:19.597Z,101271.66
2022-08-09T05:54:46.395Z,101285.06
2022-08-09T05:57:17.615Z,101290.47
2022-08-09T05:59:46.461Z,101283.50
2022-08-09T06:02:16.967Z,101257.97
2022-08-09T06:04:46.080Z,101275.94
2022-08-09T06:07:21.409Z,101277.66
2022-08-09T06:09:54.344Z,101274.59
2022-08-09T06:12:29.919Z,101265.03
2022-08-09T06:15:01.124Z,101258.81
2022-08-09T06:17:40.519Z,101255.75
2022-08-09T06:20:09.327Z,101250.50
2022-08-09T06:22:36.858Z,101235.88
2022-08-09T06:25:04.252Z,101225.19
2022-08-09T06:27:42.913Z,101217.91
2022-08-09T06:30:16.079Z,101229.56
2022-08-09T06:32:59.712Z,101224.38
2022-08-09T06:35:55.702Z,101225.28
2022-08-09T06:38:19.217Z,101210.34
2022-08-09T06:40:46.170Z,101200.97
2022-08-09T06:43:14.187Z,101208.06
2022-08-09T06:46:05.305Z,101207.25
2022-08-09T06:48:30.985Z,101201.34
2022-08-09T06:50:59.919Z,101190.63
2022-08-09T06:53:27.252Z,101194.59
2022-08-09T06:56:00.550Z,101184.19
2022-08-09T07:00:46.830Z,101193.72
2022-08-09T07:01:13.973Z,101180.59
2022-08-09T07:03:53.245Z,101153.13
2022-08-09T07:06:25.580Z,101191.63
2022-08-09T07:08:56.340Z,101183.78
2022-08-09T07:11:25.392Z,101176.19
2022-08-09T07:14:05.048Z,101185.31
2022-08-09T07:16:41.232Z,101184.88
2022-08-09T07:19:15.523Z,101196.75
2022-08-09T07:21:55.428Z,101166.06
2022-08-09T07:24:32.318Z,101206.19
2022-08-09T07:27:10.862Z,101194.69
2022-08-09T07:29:57.074Z,101168.41
2022-08-09T07:32:32.246Z,101190.84
2022-08-09T07:35:11.315Z,101172.72
2022-08-09T07:37:45.688Z,101155.72
2022-08-09T07:40:20.686Z,101157.00
2022-08-09T07:42:56.417Z,101155.56
2022-08-09T07:45:39.605Z,101149.09
2022-08-09T07:48:22.557Z,101136.56
2022-08-09T07:51:09.560Z,101143.34
2022-08-09T07:54:07.219Z,101121.81
2022-08-09T07:56:50.031Z,101164.94
2022-08-09T07:59:25.570Z,101173.31
2022-08-09T08:02:02.618Z,101173.19
2022-08-09T08:04:31.856Z,101179.91
2022-08-09T08:07:00.429Z,101174.88
2022-08-09T08:09:42.938Z,101180.63
2022-08-09T08:12:27.705Z,101177.47
2022-08-09T08:14:57.051Z,101190.06
2022-08-09T08:17:35.244Z,101172.91
2022-08-09T08:20:13.071Z,101190.50
2022-08-09T08:22:40.412Z,101213.31
2022-08-09T08:25:09.499Z,101212.66
2022-08-09T08:27:43.397Z,101224.03
2022-08-09T08:30:11.656Z,101230.31
2022-08-09T08:32:52.868Z,101218.06
2022-08-09T08:35:22.877Z,101233.91
2022-08-09T08:38:01.871Z,101234.38
2022-08-09T08:40:33.666Z,101214.06
2022-08-09T08:43:03.245Z,101221.41
2022-08-09T08:45:53.285Z,101231.78
2022-08-09T08:48:22.596Z,101229.16
2022-08-09T08:50:57.701Z,101231.56
2022-08-09T08:53:32.086Z,101228.31
2022-08-09T08:56:04.709Z,101245.06
2022-08-09T08:58:33.161Z,101235.94
2022-08-09T09:01:08.985Z,101239.06
2022-08-09T09:03:51.728Z,101242.69
2022-08-09T09:06:23.070Z,101242.19
2022-08-09T09:08:52.444Z,101247.22
2022-08-09T09:11:21.382Z,101245.81
2022-08-09T09:13:56.440Z,101248.75
2022-08-09T09:16:33.662Z,101255.63
2022-08-09T09:19:39.356Z,101246.88
2022-08-09T09:22:11.865Z,101265.59
2022-08-09T09:24:46.016Z,101261.44
2022-08-09T09:28:04.525Z,101260.34
2022-08-09T09:30:26.180Z,101260.50
2022-08-09T09:33:16.194Z,101265.25
2022-08-09T09:36:02.356Z,101262.91
2022-08-09T09:38:39.770Z,101261.16
2022-08-09T09:41:10.678Z,101255.16
2022-08-09T09:43:41.384Z,101258.78
2022-08-09T09:46:45.731Z,101265.91
2022-08-09T09:49:31.663Z,101246.56
2022-08-09T09:52:16.334Z,101260.78
2022-08-09T09:55:27.592Z,101260.22
2022-08-09T09:58:15.729Z,101240.22
2022-08-09T10:00:53.966Z,101251.63
2022-08-09T10:03:58.084Z,101260.31
2022-08-09T10:06:51.941Z,101263.53
2022-08-09T10:09:24.009Z,101266.00
2022-08-09T10:12:12.563Z,101242.16
2022-08-09T10:14:51.328Z,101259.25
2022-08-09T10:17:50.400Z,101261.28
2022-08-09T10:20:27.330Z,101252.16
2022-08-09T10:23:14.172Z,101238.72
2022-08-09T10:26:06.375Z,101247.56
2022-08-09T10:28:34.522Z,101245.94
2022-08-09T10:34:10.409Z,101248.56
2022-08-09T10:36:38.789Z,101241.66
2022-08-09T10:39:15.378Z,101244.09
2022-08-09T10:41:43.983Z,101240.66
2022-08-09T10:44:10.772Z,101248.59
2022-08-09T10:47:20.323Z,101245.13
2022-08-09T10:50:21.041Z,101230.13
2022-08-09T10:53:10.670Z,101234.00
2022-08-09T10:55:58.285Z,101241.53
2022-08-09T10:58:37.088Z,101232.09
2022-08-09T11:03:02.787Z,101239.53
2022-08-09T11:04:20.037Z,101233.88
2022-08-09T11:07:00.727Z,101245.03
2022-08-09T11:09:47.742Z,101235.88
2022-08-09T11:12:30.097Z,101222.56
2022-08-09T11:15:19.223Z,101214.16
2022-08-09T11:17:53.143Z,101207.19
2022-08-09T11:20:39.707Z,101210.53
2022-08-09T11:23:10.069Z,101207.47
2022-08-09T11:25:46.124Z,101208.75
2022-08-09T11:28:38.917Z,101181.75
2022-08-09T11:31:43.290Z,101211.38
2022-08-09T11:34:29.656Z,101210.63
2022-08-09T11:36:59.187Z,101215.09
2022-08-09T11:39:25.951Z,101218.06
2022-08-09T11:42:09.517Z,101175.59
2022-08-09T11:44:45.881Z,101217.47
2022-08-09T11:47:15.668Z,101220.41
2022-08-09T11:50:56.849Z,101223.16
2022-08-09T11:53:44.086Z,101222.28
2022-08-09T11:56:02.058Z,101219.09
2022-08-09T11:58:33.215Z,101209.34
2022-08-09T12:01:08.255Z,101216.47
2022-08-09T12:03:55.679Z,101215.63
2022-08-09T12:06:24.742Z,101211.38
2022-08-09T12:08:55.980Z,101194.13
2022-08-09T12:11:26.364Z,101210.22
2022-08-09T12:14:10.195Z,101208.56
2022-08-09T12:16:47.077Z,101193.09
2022-08-09T12:19:13.963Z,101208.53
2022-08-09T12:21:48.447Z,101211.72
2022-08-09T12:24:24.959Z,101195.75
2022-08-09T12:29:10.730Z,101196.28
2022-08-09T12:30:01.441Z,101205.91
2022-08-09T12:32:44.308Z,101195.50
2022-08-09T12:35:13.154Z,101191.06
2022-08-09T12:37:50.233Z,101198.34
2022-08-09T12:40:20.569Z,101182.53
2022-08-09T12:42:50.499Z,101189.34
2022-08-09T12:45:34.759Z,101205.47
2022-08-09T12:48:07.815Z,101201.63
2022-08-09T12:50:38.518Z,101202.78
2022-08-09T12:53:18.381Z,101211.84
2022-08-09T12:56:11.639Z,101200.28
2022-08-09T12:58:34.400Z,101220.28
2022-08-09T13:01:22.091Z,101209.50
2022-08-09T13:04:36.442Z,101209.44
2022-08-09T13:07:13.779Z,101217.78
2022-08-09T13:09:52.850Z,101200.25
2022-08-09T13:12:23.189Z,101184.94
2022-08-09T13:14:54.180Z,101185.06
2022-08-09T13:18:03.365Z,101188.50
2022-08-09T13:20:18.710Z,101189.19
2022-08-09T13:23:05.564Z,101186.75
2022-08-09T13:25:42.761Z,101189.19
2022-08-09T13:28:24.620Z,101179.28
2022-08-09T13:32:20.074Z,101184.66
2022-08-09T13:33:59.706Z,101174.84
2022-08-09T13:36:42.551Z,101182.94
2022-08-09T13:39:30.974Z,101178.03
2022-08-09T13:42:05.371Z,101171.28
2022-08-09T13:44:37.970Z,101164.06
2022-08-09T13:47:33.070Z,101165.22
2022-08-09T13:50:04.258Z,101168.53
2022-08-09T13:52:40.128Z,101170.88
2022-08-09T13:55:13.558Z,101156.91
2022-08-09T13:57:56.345Z,101169.75
2022-08-09T14:00:28.615Z,101166.84
2022-08-09T14:03:04.330Z,101175.75
2022-08-09T14:05:58.862Z,101174.16
2022-08-09T14:08:30.200Z,101196.47
2022-08-09T14:11:00.327Z,101192.69
2022-08-09T14:14:22.878Z,101203.94
2022-08-09T14:16:20.059Z,101195.50
2022-08-09T14:18:55.913Z,101196.59
2022-08-09T14:21:26.542Z,101202.09
